sensor_id;sensor_type;location;lat;lon;timestamp;P1;durP1;ratioP1;P2;durP2;ratioP2
47866;SDS011;33628;50.806;11.586;2023-08-24T00:00:50;7.97;;;4.97;;
47866;SDS011;33628;50.806;11.586;2023-08-24T00:03:17;4.97;;;4.50;;
47866;SDS011;33628;50.806;11.586;2023-08-24T00:05:43;5.75;;;4.97;;
47866;SDS011;33628;50.806;11.586;2023-08-24T00:08:10;7.78;;;4.57;;
47866;SDS011;33628;50.806;11.586;2023-08-24T00:10:37;6.83;;;4.87;;
47866;SDS011;33628;50.806;11.586;2023-08-24T00:13:05;5.82;;;4.85;;
47866;SDS011;33628;50.806;11.586;2023-08-24T00:15:33;10.18;;;5.13;;
47866;SDS011;33628;50.806;11.586;2023-08-24T00:18:01;10.23;;;5.13;;
47866;SDS011;33628;50.806;11.586;2023-08-24T00:20:28;7.53;;;4.88;;
47866;SDS011;33628;50.806;11.586;2023-08-24T00:22:55;8.20;;;5.07;;
47866;SDS011;33628;50.806;11.586;2023-08-24T00:25:21;7.70;;;5.20;;
47866;SDS011;33628;50.806;11.586;2023-08-24T00:27:48;7.07;;;5.50;;
47866;SDS011;33628;50.806;11.586;2023-08-24T00:30:16;11.05;;;5.18;;
47866;SDS011;33628;50.806;11.586;2023-08-24T00:32:44;10.52;;;5.78;;
47866;SDS011;33628;50.806;11.586;2023-08-24T00:35:11;5.97;;;5.28;;
47866;SDS011;33628;50.806;11.586;2023-08-24T00:37:38;7.70;;;5.25;;
47866;SDS011;33628;50.806;11.586;2023-08-24T00:40:05;11.00;;;5.32;;
47866;SDS011;33628;50.806;11.586;2023-08-24T00:42:39;7.82;;;6.00;;
47866;SDS011;33628;50.806;11.586;2023-08-24T00:45:06;5.90;;;5.28;;
47866;SDS011;33628;50.806;11.586;2023-08-24T00:47:36;6.90;;;5.30;;
47866;SDS011;33628;50.806;11.586;2023-08-24T00:50:03;7.38;;;5.82;;
47866;SDS011;33628;50.806;11.586;2023-08-24T00:52:31;7.63;;;5.72;;
47866;SDS011;33628;50.806;11.586;2023-08-24T00:54:59;7.30;;;5.70;;
47866;SDS011;33628;50.806;11.586;2023-08-24T00:57:26;7.32;;;5.85;;
47866;SDS011;33628;50.806;11.586;2023-08-24T00:59:52;7.85;;;5.90;;
47866;SDS011;33628;50.806;11.586;2023-08-24T01:02:19;7.40;;;5.60;;
47866;SDS011;33628;50.806;11.586;2023-08-24T01:04:47;7.53;;;5.38;;
47866;SDS011;33628;50.806;11.586;2023-08-24T01:07:14;9.43;;;5.60;;
47866;SDS011;33628;50.806;11.586;2023-08-24T01:09:41;9.93;;;6.00;;
47866;SDS011;33628;50.806;11.586;2023-08-24T01:12:10;7.93;;;5.75;;
47866;SDS011;33628;50.806;11.586;2023-08-24T01:14:44;6.55;;;5.90;;
47866;SDS011;33628;50.806;11.586;2023-08-24T01:17:14;8.68;;;6.07;;
47866;SDS011;33628;50.806;11.586;2023-08-24T01:19:42;6.78;;;5.95;;
47866;SDS011;33628;50.806;11.586;2023-08-24T01:22:17;9.45;;;6.18;;
47866;SDS011;33628;50.806;11.586;2023-08-24T01:24:47;5.68;;;5.18;;
47866;SDS011;33628;50.806;11.586;2023-08-24T01:27:17;6.55;;;5.70;;
47866;SDS011;33628;50.806;11.586;2023-08-24T01:29:44;8.82;;;5.85;;
47866;SDS011;33628;50.806;11.586;2023-08-24T06:35:56;9.82;;;5.82;;
47866;SDS011;33628;50.806;11.586;2023-08-24T06:39:00;10.20;;;6.15;;
47866;SDS011;33628;50.806;11.586;2023-08-24T06:42:04;8.13;;;5.90;;
47866;SDS011;33628;50.806;11.586;2023-08-24T06:45:09;6.97;;;5.28;;
47866;SDS011;33628;50.806;11.586;2023-08-24T06:47:36;7.55;;;5.25;;
47866;SDS011;33628;50.806;11.586;2023-08-24T06:50:03;6.90;;;5.10;;
47866;SDS011;33628;50.806;11.586;2023-08-24T06:52:33;7.07;;;5.30;;
47866;SDS011;33628;50.806;11.586;2023-08-24T06:55:00;9.82;;;5.40;;
47866;SDS011;33628;50.806;11.586;2023-08-24T06:57:26;7.05;;;5.72;;
47866;SDS011;33628;50.806;11.586;2023-08-24T06:59:53;9.15;;;5.22;;
47866;SDS011;33628;50.806;11.586;2023-08-24T07:02:20;9.90;;;5.50;;
47866;SDS011;33628;50.806;11.586;2023-08-24T07:04:48;7.00;;;4.63;;
47866;SDS011;33628;50.806;11.586;2023-08-24T07:07:15;7.05;;;4.60;;
47866;SDS011;33628;50.806;11.586;2023-08-24T07:09:43;7.07;;;5.15;;
47866;SDS011;33628;50.806;11.586;2023-08-24T07:12:10;5.97;;;4.53;;
47866;SDS011;33628;50.806;11.586;2023-08-24T07:14:37;5.70;;;4.82;;
47866;SDS011;33628;50.806;11.586;2023-08-24T07:17:05;7.50;;;4.63;;
47866;SDS011;33628;50.806;11.586;2023-08-24T07:19:32;5.93;;;4.85;;
47866;SDS011;33628;50.806;11.586;2023-08-24T07:21:59;6.03;;;4.95;;
47866;SDS011;33628;50.806;11.586;2023-08-24T07:24:26;5.07;;;4.57;;
47866;SDS011;33628;50.806;11.586;2023-08-24T07:26:56;10.32;;;4.63;;
47866;SDS011;33628;50.806;11.586;2023-08-24T07:29:24;6.57;;;5.05;;
47866;SDS011;33628;50.806;11.586;2023-08-24T07:31:51;6.60;;;4.68;;
47866;SDS011;33628;50.806;11.586;2023-08-24T07:34:17;7.55;;;5.00;;
47866;SDS011;33628;50.806;11.586;2023-08-24T07:36:44;6.95;;;4.47;;
47866;SDS011;33628;50.806;11.586;2023-08-24T07:39:13;6.30;;;4.43;;
47866;SDS011;33628;50.806;11.586;2023-08-24T07:41:41;11.52;;;4.28;;
47866;SDS011;33628;50.806;11.586;2023-08-24T07:44:09;6.82;;;4.30;;
47866;SDS011;33628;50.806;11.586;2023-08-24T07:46:35;5.65;;;4.15;;
47866;SDS011;33628;50.806;11.586;2023-08-24T07:49:04;10.80;;;4.47;;
47866;SDS011;33628;50.806;11.586;2023-08-24T07:51:32;6.57;;;4.95;;
47866;SDS011;33628;50.806;11.586;2023-08-24T07:53:59;6.03;;;4.57;;
47866;SDS011;33628;50.806;11.586;2023-08-24T07:56:25;5.13;;;4.63;;
47866;SDS011;33628;50.806;11.586;2023-08-24T07:58:52;6.35;;;5.13;;
47866;SDS011;33628;50.806;11.586;2023-08-24T08:01:20;8.35;;;4.65;;
47866;SDS011;33628;50.806;11.586;2023-08-24T08:03:47;7.15;;;5.18;;
47866;SDS011;33628;50.806;11.586;2023-08-24T08:06:13;6.82;;;4.88;;
47866;SDS011;33628;50.806;11.586;2023-08-24T08:08:40;6.68;;;4.82;;
47866;SDS011;33628;50.806;11.586;2023-08-24T08:11:07;12.60;;;5.18;;
47866;SDS011;33628;50.806;11.586;2023-08-24T08:13:33;8.23;;;4.20;;
47866;SDS011;33628;50.806;11.586;2023-08-24T08:16:00;6.65;;;4.05;;
47866;SDS011;33628;50.806;11.586;2023-08-24T08:18:33;8.80;;;4.20;;
47866;SDS011;33628;50.806;11.586;2023-08-24T08:21:08;8.15;;;4.53;;
47866;SDS011;33628;50.806;11.586;2023-08-24T08:23:35;5.10;;;3.97;;
47866;SDS011;33628;50.806;11.586;2023-08-24T08:26:02;9.32;;;4.07;;
47866;SDS011;33628;50.806;11.586;2023-08-24T08:28:28;5.10;;;3.58;;
47866;SDS011;33628;50.806;11.586;2023-08-24T08:30:55;7.07;;;4.53;;
47866;SDS011;33628;50.806;11.586;2023-08-24T08:33:22;7.80;;;3.90;;
47866;SDS011;33628;50.806;11.586;2023-08-24T08:35:51;7.13;;;4.20;;
47866;SDS011;33628;50.806;11.586;2023-08-24T08:38:18;5.35;;;3.88;;
47866;SDS011;33628;50.806;11.586;2023-08-24T08:40:47;5.10;;;3.60;;
47866;SDS011;33628;50.806;11.586;2023-08-24T08:43:15;6.18;;;3.97;;
47866;SDS011;33628;50.806;11.586;2023-08-24T08:45:42;7.05;;;3.78;;
47866;SDS011;33628;50.806;11.586;2023-08-24T08:48:09;4.25;;;3.28;;
47866;SDS011;33628;50.806;11.586;2023-08-24T08:50:37;5.25;;;3.38;;
47866;SDS011;33628;50.806;11.586;2023-08-24T08:53:05;3.95;;;3.53;;
47866;SDS011;33628;50.806;11.586;2023-08-24T08:55:31;9.38;;;3.67;;
47866;SDS011;33628;50.806;11.586;2023-08-24T08:57:58;10.07;;;3.50;;
47866;SDS011;33628;50.806;11.586;2023-08-24T09:00:25;4.38;;;3.28;;
47866;SDS011;33628;50.806;11.586;2023-08-24T09:02:52;10.10;;;3.42;;
47866;SDS011;33628;50.806;11.586;2023-08-24T09:05:19;4.55;;;3.40;;
47866;SDS011;33628;50.806;11.586;2023-08-24T09:07:46;5.07;;;3.25;;
47866;SDS011;33628;50.806;11.586;2023-08-24T09:10:15;6.50;;;3.67;;
47866;SDS011;33628;50.806;11.586;2023-08-24T09:12:41;6.43;;;3.58;;
47866;SDS011;33628;50.806;11.586;2023-08-24T09:15:09;5.30;;;3.42;;
47866;SDS011;33628;50.806;11.586;2023-08-24T09:17:36;4.55;;;3.60;;
47866;SDS011;33628;50.806;11.586;2023-08-24T09:20:08;7.45;;;3.60;;
47866;SDS011;33628;50.806;11.586;2023-08-24T09:22:36;8.70;;;3.40;;
47866;SDS011;33628;50.806;11.586;2023-08-24T09:25:05;6.05;;;3.50;;
47866;SDS011;33628;50.806;11.586;2023-08-24T09:27:35;7.45;;;3.78;;
47866;SDS011;33628;50.806;11.586;2023-08-24T09:30:02;4.22;;;3.80;;
47866;SDS011;33628;50.806;11.586;2023-08-24T09:32:32;5.13;;;3.95;;
47866;SDS011;33628;50.806;11.586;2023-08-24T09:35:01;9.52;;;3.97;;
47866;SDS011;33628;50.806;11.586;2023-08-24T09:37:31;6.55;;;3.75;;
47866;SDS011;33628;50.806;11.586;2023-08-24T09:40:00;7.65;;;4.35;;
47866;SDS011;33628;50.806;11.586;2023-08-24T09:42:31;6.63;;;4.13;;
47866;SDS011;33628;50.806;11.586;2023-08-24T09:45:03;8.20;;;4.38;;
47866;SDS011;33628;50.806;11.586;2023-08-24T09:47:31;7.97;;;4.07;;
47866;SDS011;33628;50.806;11.586;2023-08-24T09:49:58;6.55;;;4.20;;
47866;SDS011;33628;50.806;11.586;2023-08-24T09:52:25;5.35;;;4.70;;
47866;SDS011;33628;50.806;11.586;2023-08-24T09:54:53;5.78;;;4.00;;
47866;SDS011;33628;50.806;11.586;2023-08-24T09:57:20;6.28;;;3.55;;
47866;SDS011;33628;50.806;11.586;2023-08-24T09:59:46;6.10;;;3.70;;
47866;SDS011;33628;50.806;11.586;2023-08-24T10:02:17;6.43;;;4.28;;
47866;SDS011;33628;50.806;11.586;2023-08-24T10:04:47;21.02;;;7.80;;
47866;SDS011;33628;50.806;11.586;2023-08-24T10:07:14;4.25;;;2.95;;
47866;SDS011;33628;50.806;11.586;2023-08-24T10:09:47;3.65;;;2.25;;
47866;SDS011;33628;50.806;11.586;2023-08-24T10:12:18;4.78;;;2.15;;
47866;SDS011;33628;50.806;11.586;2023-08-24T10:14:47;4.38;;;2.10;;
47866;SDS011;33628;50.806;11.586;2023-08-24T10:17:20;5.40;;;2.40;;
47866;SDS011;33628;50.806;11.586;2023-08-24T10:19:47;2.67;;;2.03;;
47866;SDS011;33628;50.806;11.586;2023-08-24T10:22:14;20.20;;;5.95;;
47866;SDS011;33628;50.806;11.586;2023-08-24T10:24:40;7.25;;;2.70;;
47866;SDS011;33628;50.806;11.586;2023-08-24T10:27:08;5.60;;;2.55;;
47866;SDS011;33628;50.806;11.586;2023-08-24T10:29:35;3.75;;;2.38;;
47866;SDS011;33628;50.806;11.586;2023-08-24T10:32:02;4.95;;;2.22;;
47866;SDS011;33628;50.806;11.586;2023-08-24T10:34:30;5.78;;;3.40;;
47866;SDS011;33628;50.806;11.586;2023-08-24T10:36:57;8.75;;;3.95;;
47866;SDS011;33628;50.806;11.586;2023-08-24T10:42:01;4.75;;;2.33;;
47866;SDS011;33628;50.806;11.586;2023-08-24T10:44:33;6.05;;;2.47;;
47866;SDS011;33628;50.806;11.586;2023-08-24T10:49:59;5.03;;;2.92;;
47866;SDS011;33628;50.806;11.586;2023-08-24T10:52:30;5.55;;;3.13;;
47866;SDS011;33628;50.806;11.586;2023-08-24T10:55:00;4.35;;;2.58;;
47866;SDS011;33628;50.806;11.586;2023-08-24T10:57:34;4.57;;;2.72;;
47866;SDS011;33628;50.806;11.586;2023-08-24T11:00:05;5.35;;;2.50;;
47866;SDS011;33628;50.806;11.586;2023-08-24T11:02:43;5.13;;;1.80;;
47866;SDS011;33628;50.806;11.586;2023-08-24T11:05:16;4.68;;;2.50;;
47866;SDS011;33628;50.806;11.586;2023-08-24T11:07:50;5.38;;;2.45;;
47866;SDS011;33628;50.806;11.586;2023-08-24T11:10:19;2.70;;;2.10;;
47866;SDS011;33628;50.806;11.586;2023-08-24T11:13:04;3.15;;;1.90;;
47866;SDS011;33628;50.806;11.586;2023-08-24T11:15:37;5.05;;;1.92;;
47866;SDS011;33628;50.806;11.586;2023-08-24T11:18:14;3.08;;;1.90;;
47866;SDS011;33628;50.806;11.586;2023-08-24T11:20:50;2.65;;;1.88;;
47866;SDS011;33628;50.806;11.586;2023-08-24T11:23:17;3.28;;;2.17;;
47866;SDS011;33628;50.806;11.586;2023-08-24T11:25:45;4.32;;;1.90;;
47866;SDS011;33628;50.806;11.586;2023-08-24T11:28:16;3.25;;;2.10;;
47866;SDS011;33628;50.806;11.586;2023-08-24T11:30:44;4.80;;;1.83;;
47866;SDS011;33628;50.806;11.586;2023-08-24T11:33:11;5.25;;;2.00;;
47866;SDS011;33628;50.806;11.586;2023-08-24T11:35:42;4.28;;;1.90;;
47866;SDS011;33628;50.806;11.586;2023-08-24T11:38:11;4.40;;;2.17;;
47866;SDS011;33628;50.806;11.586;2023-08-24T11:40:38;4.60;;;2.10;;
47866;SDS011;33628;50.806;11.586;2023-08-24T11:43:05;2.80;;;1.85;;
47866;SDS011;33628;50.806;11.586;2023-08-24T11:45:33;2.67;;;1.83;;
47866;SDS011;33628;50.806;11.586;2023-08-24T11:48:02;3.45;;;1.67;;
47866;SDS011;33628;50.806;11.586;2023-08-24T11:50:30;4.38;;;1.88;;
47866;SDS011;33628;50.806;11.586;2023-08-24T11:52:58;4.03;;;2.20;;
47866;SDS011;33628;50.806;11.586;2023-08-24T11:55:26;4.35;;;1.95;;
47866;SDS011;33628;50.806;11.586;2023-08-24T11:57:53;4.95;;;2.05;;
47866;SDS011;33628;50.806;11.586;2023-08-24T12:00:21;4.10;;;1.95;;
47866;SDS011;33628;50.806;11.586;2023-08-24T12:02:48;2.33;;;1.83;;
47866;SDS011;33628;50.806;11.586;2023-08-24T12:05:21;3.70;;;2.20;;
47866;SDS011;33628;50.806;11.586;2023-08-24T12:07:49;2.72;;;1.85;;
47866;SDS011;33628;50.806;11.586;2023-08-24T12:10:17;2.83;;;2.30;;
47866;SDS011;33628;50.806;11.586;2023-08-24T12:12:46;3.13;;;2.08;;
47866;SDS011;33628;50.806;11.586;2023-08-24T12:15:15;3.80;;;2.03;;
47866;SDS011;33628;50.806;11.586;2023-08-24T12:17:43;3.88;;;2.20;;
47866;SDS011;33628;50.806;11.586;2023-08-24T12:20:16;3.90;;;2.17;;
47866;SDS011;33628;50.806;11.586;2023-08-24T12:22:44;5.13;;;2.28;;
47866;SDS011;33628;50.806;11.586;2023-08-24T12:25:17;3.38;;;2.17;;
47866;SDS011;33628;50.806;11.586;2023-08-24T12:27:43;5.10;;;2.33;;
47866;SDS011;33628;50.806;11.586;2023-08-24T12:30:11;5.97;;;2.38;;
47866;SDS011;33628;50.806;11.586;2023-08-24T12:32:44;6.07;;;2.55;;
47866;SDS011;33628;50.806;11.586;2023-08-24T12:35:12;4.63;;;2.33;;
47866;SDS011;33628;50.806;11.586;2023-08-24T12:37:39;4.30;;;2.38;;
47866;SDS011;33628;50.806;11.586;2023-08-24T12:40:07;4.43;;;2.15;;
47866;SDS011;33628;50.806;11.586;2023-08-24T12:42:34;3.63;;;2.40;;
47866;SDS011;33628;50.806;11.586;2023-08-24T12:45:04;7.78;;;2.30;;
47866;SDS011;33628;50.806;11.586;2023-08-24T12:47:31;4.95;;;2.40;;
47866;SDS011;33628;50.806;11.586;2023-08-24T12:50:00;5.30;;;2.22;;
47866;SDS011;33628;50.806;11.586;2023-08-24T12:52:27;4.88;;;2.20;;
47866;SDS011;33628;50.806;11.586;2023-08-24T12:54:54;7.43;;;2.65;;
47866;SDS011;33628;50.806;11.586;2023-08-24T12:57:21;6.32;;;2.38;;
47866;SDS011;33628;50.806;11.586;2023-08-24T12:59:49;3.75;;;2.22;;
47866;SDS011;33628;50.806;11.586;2023-08-24T13:02:19;4.60;;;2.60;;
47866;SDS011;33628;50.806;11.586;2023-08-24T13:04:45;3.83;;;2.67;;
47866;SDS011;33628;50.806;11.586;2023-08-24T13:07:12;3.63;;;2.47;;
47866;SDS011;33628;50.806;11.586;2023-08-24T13:09:40;4.57;;;2.40;;
47866;SDS011;33628;50.806;11.586;2023-08-24T13:12:07;2.70;;;2.40;;
47866;SDS011;33628;50.806;11.586;2023-08-24T13:14:34;3.35;;;2.47;;
47866;SDS011;33628;50.806;11.586;2023-08-24T13:17:01;3.50;;;2.40;;
47866;SDS011;33628;50.806;11.586;2023-08-24T13:19:29;2.67;;;2.20;;
47866;SDS011;33628;50.806;11.586;2023-08-24T13:21:56;6.40;;;3.28;;
47866;SDS011;33628;50.806;11.586;2023-08-24T13:24:24;6.22;;;2.40;;
47866;SDS011;33628;50.806;11.586;2023-08-24T13:26:51;6.18;;;2.50;;
47866;SDS011;33628;50.806;11.586;2023-08-24T13:29:18;4.00;;;2.35;;
47866;SDS011;33628;50.806;11.586;2023-08-24T13:31:45;3.15;;;2.33;;
47866;SDS011;33628;50.806;11.586;2023-08-24T13:34:13;5.85;;;2.50;;
47866;SDS011;33628;50.806;11.586;2023-08-24T13:36:41;3.65;;;2.28;;
47866;SDS011;33628;50.806;11.586;2023-08-24T13:39:08;5.28;;;2.78;;
47866;SDS011;33628;50.806;11.586;2023-08-24T13:41:37;3.67;;;2.28;;
47866;SDS011;33628;50.806;11.586;2023-08-24T13:44:04;5.90;;;2.05;;
47866;SDS011;33628;50.806;11.586;2023-08-24T13:46:31;3.30;;;2.28;;
47866;SDS011;33628;50.806;11.586;2023-08-24T13:48:58;5.72;;;2.50;;
47866;SDS011;33628;50.806;11.586;2023-08-24T13:51:24;5.80;;;2.50;;
47866;SDS011;33628;50.806;11.586;2023-08-24T13:53:53;4.68;;;2.53;;
47866;SDS011;33628;50.806;11.586;2023-08-24T13:56:20;4.35;;;2.58;;
47866;SDS011;33628;50.806;11.586;2023-08-24T13:58:47;4.30;;;2.80;;
47866;SDS011;33628;50.806;11.586;2023-08-24T14:01:14;5.88;;;2.78;;
47866;SDS011;33628;50.806;11.586;2023-08-24T14:03:41;6.10;;;2.88;;
47866;SDS011;33628;50.806;11.586;2023-08-24T14:06:09;6.78;;;2.72;;
47866;SDS011;33628;50.806;11.586;2023-08-24T14:08:40;8.63;;;3.58;;
47866;SDS011;33628;50.806;11.586;2023-08-24T14:11:08;5.05;;;2.58;;
47866;SDS011;33628;50.806;11.586;2023-08-24T14:13:35;5.47;;;2.95;;
47866;SDS011;33628;50.806;11.586;2023-08-24T14:16:01;8.23;;;2.80;;
47866;SDS011;33628;50.806;11.586;2023-08-24T14:18:30;5.45;;;2.80;;
47866;SDS011;33628;50.806;11.586;2023-08-24T14:20:57;4.88;;;2.58;;
47866;SDS011;33628;50.806;11.586;2023-08-24T14:23:24;5.95;;;2.40;;
47866;SDS011;33628;50.806;11.586;2023-08-24T14:25:50;5.22;;;2.40;;
47866;SDS011;33628;50.806;11.586;2023-08-24T14:28:19;6.07;;;2.78;;
47866;SDS011;33628;50.806;11.586;2023-08-24T14:30:47;3.60;;;2.60;;
47866;SDS011;33628;50.806;11.586;2023-08-24T14:33:14;5.88;;;2.92;;
47866;SDS011;33628;50.806;11.586;2023-08-24T14:35:40;3.47;;;2.72;;
47866;SDS011;33628;50.806;11.586;2023-08-24T14:38:07;9.20;;;3.20;;
47866;SDS011;33628;50.806;11.586;2023-08-24T14:40:34;4.60;;;2.75;;
47866;SDS011;33628;50.806;11.586;2023-08-24T14:43:01;8.27;;;3.65;;
47866;SDS011;33628;50.806;11.586;2023-08-24T14:45:29;7.90;;;2.95;;
47866;SDS011;33628;50.806;11.586;2023-08-24T14:47:56;3.67;;;2.63;;
47866;SDS011;33628;50.806;11.586;2023-08-24T14:50:22;6.10;;;2.50;;
47866;SDS011;33628;50.806;11.586;2023-08-24T14:55:40;5.57;;;2.83;;
47866;SDS011;33628;50.806;11.586;2023-08-24T14:58:07;6.32;;;3.05;;
47866;SDS011;33628;50.806;11.586;2023-08-24T15:00:36;5.40;;;2.17;;
47866;SDS011;33628;50.806;11.586;2023-08-24T15:03:03;3.85;;;2.55;;
47866;SDS011;33628;50.806;11.586;2023-08-24T15:05:30;5.78;;;3.10;;
47866;SDS011;33628;50.806;11.586;2023-08-24T15:07:56;8.05;;;3.03;;
47866;SDS011;33628;50.806;11.586;2023-08-24T15:10:23;5.78;;;2.55;;
47866;SDS011;33628;50.806;11.586;2023-08-24T15:12:50;10.10;;;3.33;;
47866;SDS011;33628;50.806;11.586;2023-08-24T15:15:16;4.88;;;2.67;;
47866;SDS011;33628;50.806;11.586;2023-08-24T15:17:44;4.65;;;2.45;;
47866;SDS011;33628;50.806;11.586;2023-08-24T15:20:12;5.53;;;2.40;;
47866;SDS011;33628;50.806;11.586;2023-08-24T15:22:39;7.65;;;2.97;;
47866;SDS011;33628;50.806;11.586;2023-08-24T15:25:06;5.50;;;2.58;;
47866;SDS011;33628;50.806;11.586;2023-08-24T15:27:33;4.55;;;2.90;;
47866;SDS011;33628;50.806;11.586;2023-08-24T15:30:00;5.60;;;2.50;;
47866;SDS011;33628;50.806;11.586;2023-08-24T15:32:30;4.60;;;2.55;;
47866;SDS011;33628;50.806;11.586;2023-08-24T15:34:59;7.43;;;3.10;;
47866;SDS011;33628;50.806;11.586;2023-08-24T15:37:27;6.20;;;2.90;;
47866;SDS011;33628;50.806;11.586;2023-08-24T15:39:54;8.15;;;3.15;;
47866;SDS011;33628;50.806;11.586;2023-08-24T15:42:21;4.65;;;2.90;;
47866;SDS011;33628;50.806;11.586;2023-08-24T15:44:49;4.72;;;2.70;;
47866;SDS011;33628;50.806;11.586;2023-08-24T15:47:16;5.10;;;2.70;;
47866;SDS011;33628;50.806;11.586;2023-08-24T15:49:42;8.80;;;3.30;;
47866;SDS011;33628;50.806;11.586;2023-08-24T15:52:11;4.82;;;2.75;;
47866;SDS011;33628;50.806;11.586;2023-08-24T15:54:41;4.38;;;3.15;;
47866;SDS011;33628;50.806;11.586;2023-08-24T15:57:07;3.15;;;2.75;;
47866;SDS011;33628;50.806;11.586;2023-08-24T15:59:35;6.18;;;2.95;;
47866;SDS011;33628;50.806;11.586;2023-08-24T16:02:02;5.32;;;3.40;;
47866;SDS011;33628;50.806;11.586;2023-08-24T16:04:30;8.15;;;4.60;;
47866;SDS011;33628;50.806;11.586;2023-08-24T16:06:57;11.43;;;7.38;;
47866;SDS011;33628;50.806;11.586;2023-08-24T16:09:26;9.23;;;4.22;;
47866;SDS011;33628;50.806;11.586;2023-08-24T16:11:53;6.28;;;3.20;;
47866;SDS011;33628;50.806;11.586;2023-08-24T16:14:20;5.15;;;2.88;;
47866;SDS011;33628;50.806;11.586;2023-08-24T16:16:46;3.83;;;2.80;;
47866;SDS011;33628;50.806;11.586;2023-08-24T16:19:13;3.65;;;2.97;;
47866;SDS011;33628;50.806;11.586;2023-08-24T16:21:40;6.38;;;2.97;;
47866;SDS011;33628;50.806;11.586;2023-08-24T16:24:07;6.93;;;3.15;;
47866;SDS011;33628;50.806;11.586;2023-08-24T16:26:37;8.27;;;3.25;;
47866;SDS011;33628;50.806;11.586;2023-08-24T16:29:05;6.95;;;3.38;;
47866;SDS011;33628;50.806;11.586;2023-08-24T16:31:32;6.05;;;3.25;;
47866;SDS011;33628;50.806;11.586;2023-08-24T16:34:01;5.15;;;2.80;;
47866;SDS011;33628;50.806;11.586;2023-08-24T16:36:28;4.70;;;3.05;;
47866;SDS011;33628;50.806;11.586;2023-08-24T16:38:54;3.47;;;2.95;;
47866;SDS011;33628;50.806;11.586;2023-08-24T16:41:21;4.97;;;3.05;;
47866;SDS011;33628;50.806;11.586;2023-08-24T16:43:49;5.80;;;3.13;;
47866;SDS011;33628;50.806;11.586;2023-08-24T16:46:16;7.78;;;3.47;;
47866;SDS011;33628;50.806;11.586;2023-08-24T16:48:43;6.40;;;3.75;;
47866;SDS011;33628;50.806;11.586;2023-08-24T16:51:09;5.97;;;3.33;;
47866;SDS011;33628;50.806;11.586;2023-08-24T16:53:36;6.63;;;3.10;;
47866;SDS011;33628;50.806;11.586;2023-08-24T16:56:03;6.13;;;3.25;;
47866;SDS011;33628;50.806;11.586;2023-08-24T16:58:29;4.78;;;3.38;;
47866;SDS011;33628;50.806;11.586;2023-08-24T17:01:04;4.35;;;2.90;;
47866;SDS011;33628;50.806;11.586;2023-08-24T17:03:32;6.25;;;3.05;;
47866;SDS011;33628;50.806;11.586;2023-08-24T17:05:58;12.32;;;3.33;;
47866;SDS011;33628;50.806;11.586;2023-08-24T17:08:25;7.80;;;3.75;;
47866;SDS011;33628;50.806;11.586;2023-08-24T17:10:52;5.97;;;3.60;;
47866;SDS011;33628;50.806;11.586;2023-08-24T17:13:18;4.90;;;3.25;;
47866;SDS011;33628;50.806;11.586;2023-08-24T17:15:47;7.10;;;3.58;;
47866;SDS011;33628;50.806;11.586;2023-08-24T17:18:16;9.52;;;3.53;;
47866;SDS011;33628;50.806;11.586;2023-08-24T17:20:43;6.07;;;3.63;;
47866;SDS011;33628;50.806;11.586;2023-08-24T17:23:09;11.75;;;3.65;;
47866;SDS011;33628;50.806;11.586;2023-08-24T17:25:37;6.90;;;3.58;;
47866;SDS011;33628;50.806;11.586;2023-08-24T17:28:04;3.42;;;3.13;;
47866;SDS011;33628;50.806;11.586;2023-08-24T17:30:31;9.60;;;4.35;;
47866;SDS011;33628;50.806;11.586;2023-08-24T17:32:58;5.65;;;4.10;;
47866;SDS011;33628;50.806;11.586;2023-08-24T17:35:26;6.63;;;4.00;;
47866;SDS011;33628;50.806;11.586;2023-08-24T17:37:54;5.15;;;4.03;;
47866;SDS011;33628;50.806;11.586;2023-08-24T17:40:24;6.22;;;3.80;;
47866;SDS011;33628;50.806;11.586;2023-08-24T17:42:52;10.35;;;7.57;;
47866;SDS011;33628;50.806;11.586;2023-08-24T17:45:18;14.50;;;5.03;;
47866;SDS011;33628;50.806;11.586;2023-08-24T17:47:47;5.72;;;4.03;;
47866;SDS011;33628;50.806;11.586;2023-08-24T17:50:15;8.38;;;6.22;;
47866;SDS011;33628;50.806;11.586;2023-08-24T17:52:44;7.90;;;5.00;;
47866;SDS011;33628;50.806;11.586;2023-08-24T17:55:11;11.98;;;6.47;;
47866;SDS011;33628;50.806;11.586;2023-08-24T17:57:38;10.25;;;6.15;;
47866;SDS011;33628;50.806;11.586;2023-08-24T18:00:08;12.65;;;6.22;;
47866;SDS011;33628;50.806;11.586;2023-08-24T18:02:35;10.88;;;6.03;;
47866;SDS011;33628;50.806;11.586;2023-08-24T18:05:02;10.90;;;5.35;;
47866;SDS011;33628;50.806;11.586;2023-08-24T18:07:32;7.40;;;4.45;;
47866;SDS011;33628;50.806;11.586;2023-08-24T18:10:00;9.23;;;4.78;;
47866;SDS011;33628;50.806;11.586;2023-08-24T18:12:27;7.05;;;4.70;;
47866;SDS011;33628;50.806;11.586;2023-08-24T18:14:53;5.97;;;4.78;;
47866;SDS011;33628;50.806;11.586;2023-08-24T18:17:20;11.50;;;5.82;;
47866;SDS011;33628;50.806;11.586;2023-08-24T18:19:46;8.07;;;4.72;;
47866;SDS011;33628;50.806;11.586;2023-08-24T18:22:13;7.10;;;4.35;;
47866;SDS011;33628;50.806;11.586;2023-08-24T18:24:40;5.35;;;4.32;;
47866;SDS011;33628;50.806;11.586;2023-08-24T18:27:09;6.35;;;3.95;;
47866;SDS011;33628;50.806;11.586;2023-08-24T18:29:36;6.65;;;4.47;;
47866;SDS011;33628;50.806;11.586;2023-08-24T18:32:04;7.13;;;4.20;;
47866;SDS011;33628;50.806;11.586;2023-08-24T18:34:31;7.65;;;4.55;;
47866;SDS011;33628;50.806;11.586;2023-08-24T18:36:58;5.03;;;4.25;;
47866;SDS011;33628;50.806;11.586;2023-08-24T18:39:24;10.30;;;4.13;;
47866;SDS011;33628;50.806;11.586;2023-08-24T18:41:51;5.47;;;4.18;;
47866;SDS011;33628;50.806;11.586;2023-08-24T18:44:20;7.40;;;4.70;;
47866;SDS011;33628;50.806;11.586;2023-08-24T18:46:46;8.15;;;4.68;;
47866;SDS011;33628;50.806;11.586;2023-08-24T18:49:16;6.75;;;5.40;;
47866;SDS011;33628;50.806;11.586;2023-08-24T18:51:45;10.80;;;5.10;;
47866;SDS011;33628;50.806;11.586;2023-08-24T18:54:12;10.88;;;6.22;;
47866;SDS011;33628;50.806;11.586;2023-08-24T18:56:38;8.70;;;6.00;;
47866;SDS011;33628;50.806;11.586;2023-08-24T18:59:05;11.10;;;5.20;;
47866;SDS011;33628;50.806;11.586;2023-08-24T19:01:33;7.47;;;5.10;;
47866;SDS011;33628;50.806;11.586;2023-08-24T19:04:00;9.73;;;5.25;;
47866;SDS011;33628;50.806;11.586;2023-08-24T19:06:29;12.05;;;5.72;;
47866;SDS011;33628;50.806;11.586;2023-08-24T19:08:55;9.80;;;7.68;;
47866;SDS011;33628;50.806;11.586;2023-08-24T19:11:22;7.47;;;4.93;;
47866;SDS011;33628;50.806;11.586;2023-08-24T19:13:50;6.40;;;4.95;;
47866;SDS011;33628;50.806;11.586;2023-08-24T19:16:18;7.55;;;5.95;;
47866;SDS011;33628;50.806;11.586;2023-08-24T19:18:46;7.55;;;5.30;;
47866;SDS011;33628;50.806;11.586;2023-08-24T19:21:13;7.10;;;5.90;;
47866;SDS011;33628;50.806;11.586;2023-08-24T19:23:39;10.20;;;6.70;;
47866;SDS011;33628;50.806;11.586;2023-08-24T19:26:06;16.92;;;6.20;;
47866;SDS011;33628;50.806;11.586;2023-08-24T19:28:33;7.60;;;6.05;;
47866;SDS011;33628;50.806;11.586;2023-08-24T19:30:59;10.55;;;5.82;;
47866;SDS011;33628;50.806;11.586;2023-08-24T19:33:26;7.43;;;5.68;;
47866;SDS011;33628;50.806;11.586;2023-08-24T19:35:55;10.63;;;7.20;;
47866;SDS011;33628;50.806;11.586;2023-08-24T19:38:21;11.25;;;5.90;;
47866;SDS011;33628;50.806;11.586;2023-08-24T19:40:48;10.85;;;5.35;;
47866;SDS011;33628;50.806;11.586;2023-08-24T19:43:14;12.70;;;7.15;;
47866;SDS011;33628;50.806;11.586;2023-08-24T19:45:41;9.57;;;7.40;;
47866;SDS011;33628;50.806;11.586;2023-08-24T19:48:09;13.52;;;7.25;;
47866;SDS011;33628;50.806;11.586;2023-08-24T19:50:40;11.05;;;5.88;;